Main page
METAR-TAF:

METAR-TAF

Airports :

Shimla Airport

Shimla, India

latitude: 31-04-54N, longitude: 77-04-05E, elevation: 1546 m

Current weather observation

The report was made 1 hour and 53 minutes ago, at 04:00 UTC
Calm wind
Temperature 20°C
Humidity 94%
Pressure 1016 hPa
Scattered clouds at a height lower than 100 ft
Overcast at a height of 3000 ft
fog

METAR: VISM 250400Z 00000KT 50 FG SCT000 OVC030 20/19 Q1016

Time: 11:23 (05:53 UTC)

Forecast

The report was made 53 minutes ago, at 05:00 UTC
Forecast valid from 25 at 06 UTC to 25 at 15 UTC
Wind kt from the North
Visibility: 4000 m
Scattered clouds at a height of 3000 ft
Overcast at a height of 6000 ft
mist, light rain
Becoming
from 25 at 08 UTC to 25 at 15 UTC
Visibility: 2000 m
Scattered clouds at a height of 3500 ft
Few clouds at a height of 3000 ft, Cumulonimbus.
Overcast at a height of 6000 ft
thunderstorm, light rain

TAF: VISM 250500Z 2506/2515 00000KT 4000 BR -RA SCT030 OVC060 BECMG 2508/2515 2000 -TSRA SCT035 FEW030CB OVC060

Weather observations and forecasts of more than 4000 airports (METAR and TAF reports).

The available stations are represented by yellow and red dots on the map.

Hover mouse over dot to see the name of the station.

Then click to see weather observations and forecasts.

To change the map : click on the green buttons with a black cross to zoom in, on the green button with a dash to zoom out, or on the green arrows for adjacent maps.


METAR-TAF: